Time;durP1;ratioP1;P1;durP2;ratioP2;P2;SDS_P1;SDS_P2;PMS_P1;PMS_P2;Temp;Humidity;BMP_temperature;BMP_pressure;BME280_temperature;BME280_humidity;BME280_pressure;Samples;Min_cycle;Max_cycle;Signal;HPM_P1;HPM_P2
2024/02/12 00:00:23;;;;;;;1.98;1.00;;;7.20;99.90;;;;;;5035255;28;20033;-85
2024/02/12 00:02:49;;;;;;;3.40;0.82;;;7.20;99.90;;;;;;5037358;28;20499;-82
2024/02/12 00:05:15;;;;;;;3.08;1.40;;;7.30;99.90;;;;;;5037134;28;20799;-83
2024/02/12 00:07:42;;;;;;;2.67;1.05;;;7.40;99.90;;;;;;5037922;28;20033;-83
2024/02/12 00:10:12;;;;;;;1.85;0.82;;;7.40;99.90;;;;;;5037084;28;20497;-85
2024/02/12 00:12:41;;;;;;;2.58;0.93;;;7.40;99.90;;;;;;5037501;28;20135;-84
2024/02/12 00:15:11;;;;;;;2.72;1.00;;;7.30;99.90;;;;;;5038659;28;20061;-83
2024/02/12 00:17:41;;;;;;;4.53;1.23;;;7.30;99.90;;;;;;5039686;28;20033;-84
2024/02/12 00:20:11;;;;;;;1.15;0.70;;;7.30;99.90;;;;;;5040500;28;20132;-84
2024/02/12 00:22:40;;;;;;;1.65;0.90;;;7.10;99.90;;;;;;5041527;28;20051;-84
2024/02/12 00:25:28;;;;;;;2.42;1.00;;;7.10;99.90;;;;;;5040785;28;20490;-84
2024/02/12 00:27:55;;;;;;;2.53;1.05;;;7.40;99.90;;;;;;5041465;28;20036;-83
2024/02/12 00:30:21;;;;;;;2.92;1.20;;;7.50;99.90;;;;;;5041344;28;20135;-84
2024/02/12 00:32:48;;;;;;;5.00;1.10;;;7.50;99.90;;;;;;5039982;28;20056;-84
2024/02/12 00:35:15;;;;;;;2.70;1.33;;;7.60;99.90;;;;;;5040169;28;20060;-83
2024/02/12 00:37:42;;;;;;;2.33;1.00;;;7.60;99.90;;;;;;5038823;28;20111;-83
2024/02/12 00:40:08;;;;;;;2.55;1.20;;;7.70;99.90;;;;;;5040274;28;20453;-83
2024/02/12 00:42:35;;;;;;;2.55;1.02;;;7.60;99.90;;;;;;5041689;28;20037;-83
2024/02/12 00:45:03;;;;;;;2.40;1.33;;;7.50;99.90;;;;;;5039660;28;20098;-82
2024/02/12 00:47:29;;;;;;;2.70;1.15;;;7.60;99.90;;;;;;5039131;28;20033;-85
2024/02/12 00:49:55;;;;;;;3.17;1.38;;;7.50;99.90;;;;;;5040504;28;20071;-84
2024/02/12 00:52:23;;;;;;;1.92;0.98;;;7.40;99.90;;;;;;5039217;28;20057;-84
2024/02/12 00:54:52;;;;;;;1.88;0.82;;;7.50;99.90;;;;;;5039342;28;20057;-83
2024/02/12 00:57:20;;;;;;;3.13;1.50;;;7.50;99.90;;;;;;5039379;28;20217;-84
2024/02/12 00:59:46;;;;;;;3.00;1.30;;;7.90;99.90;;;;;;5041024;28;20037;-83
2024/02/12 01:02:12;;;;;;;3.20;1.38;;;7.80;99.90;;;;;;5039033;28;20380;-85
2024/02/12 01:04:38;;;;;;;2.47;1.00;;;7.70;99.90;;;;;;5038159;28;20053;-83
2024/02/12 01:07:04;;;;;;;2.63;1.33;;;7.60;99.90;;;;;;5040001;28;20068;-83
2024/02/12 01:09:33;;;;;;;2.45;1.15;;;7.50;99.90;;;;;;5039394;28;20112;-83
2024/02/12 01:11:59;;;;;;;2.60;1.00;;;7.00;99.90;;;;;;5039681;28;20084;-83
2024/02/12 01:14:28;;;;;;;1.98;1.00;;;6.80;99.90;;;;;;5039765;28;20036;-83
2024/02/12 01:16:55;;;;;;;1.98;0.73;;;7.00;99.90;;;;;;5038489;28;20482;-85
2024/02/12 01:19:21;;;;;;;3.00;1.02;;;6.80;99.90;;;;;;5038870;28;20036;-85
2024/02/12 01:21:47;;;;;;;2.08;0.98;;;6.70;99.90;;;;;;5039366;28;20034;-83
2024/02/12 01:25:24;;;;;;;3.78;1.27;;;6.80;99.90;;;;;;5038943;28;20036;-83
2024/02/12 01:27:31;;;;;;;1.35;0.52;;;7.00;99.90;;;;;;5030281;28;20045;-83
2024/02/12 01:29:57;;;;;;;2.17;0.90;;;6.80;99.90;;;;;;5039866;28;20044;-83
2024/02/12 01:32:23;;;;;;;1.67;0.88;;;6.50;99.90;;;;;;5037423;28;20138;-86
2024/02/12 01:34:49;;;;;;;3.97;0.98;;;6.30;99.90;;;;;;5037662;28;20024;-85
2024/02/12 01:37:16;;;;;;;1.88;1.13;;;6.20;99.90;;;;;;5039534;28;20045;-85
2024/02/12 01:39:41;;;;;;;1.13;0.63;;;6.50;99.90;;;;;;5038680;28;20029;-85
2024/02/12 01:42:13;;;;;;;2.88;1.08;;;6.40;99.90;;;;;;5039256;28;20039;-86
2024/02/12 01:45:17;;;;;;;1.63;0.77;;;6.40;99.90;;;;;;5038013;28;20048;-85
2024/02/12 01:47:46;;;;;;;1.63;0.80;;;6.30;99.90;;;;;;5035920;28;20041;-83
2024/02/12 01:50:13;;;;;;;2.70;1.10;;;6.10;99.90;;;;;;5037874;28;20171;-84
2024/02/12 01:52:42;;;;;;;2.55;1.13;;;6.50;99.90;;;;;;5039116;28;20029;-83
2024/02/12 01:55:08;;;;;;;3.28;0.90;;;6.70;99.90;;;;;;5039066;28;20064;-84
2024/02/12 01:57:38;;;;;;;6.25;1.20;;;6.30;99.90;;;;;;5037794;28;20033;-85
2024/02/12 02:00:05;;;;;;;1.42;0.70;;;6.30;99.90;;;;;;5038113;28;20040;-84
2024/02/12 02:02:31;;;;;;;1.52;0.80;;;6.20;99.90;;;;;;5039104;28;20044;-84
2024/02/12 02:04:58;;;;;;;1.25;0.60;;;6.40;99.90;;;;;;5037044;28;20033;-84
2024/02/12 02:07:24;;;;;;;2.92;0.80;;;6.50;99.90;;;;;;5038651;28;20056;-84
2024/02/12 02:09:53;;;;;;;1.48;0.68;;;6.40;99.90;;;;;;5040025;28;20504;-83
2024/02/12 02:12:39;;;;;;;2.83;1.27;;;6.40;99.90;;;;;;5039022;28;20033;-83
2024/02/12 02:15:08;;;;;;;2.85;0.77;;;6.30;99.90;;;;;;5038154;28;20036;-83
2024/02/12 02:17:46;;;;;;;1.60;0.82;;;6.40;99.90;;;;;;5038310;28;20120;-83
2024/02/12 02:20:12;;;;;;;2.28;1.00;;;6.60;99.90;;;;;;5038404;28;20060;-84
2024/02/12 02:22:39;;;;;;;1.23;0.63;;;6.50;99.90;;;;;;5039223;28;20048;-84
2024/02/12 02:25:05;;;;;;;1.92;0.85;;;6.50;99.90;;;;;;5038793;28;20041;-84
2024/02/12 02:27:33;;;;;;;1.33;0.70;;;6.50;99.90;;;;;;5037282;28;20063;-84
2024/02/12 02:29:59;;;;;;;1.73;0.80;;;6.40;99.90;;;;;;5037549;28;20037;-83
2024/02/12 02:32:27;;;;;;;1.48;0.77;;;6.30;99.90;;;;;;5039242;28;20039;-83
2024/02/12 02:34:55;;;;;;;1.35;0.68;;;6.30;99.90;;;;;;5037911;28;20124;-84
2024/02/12 02:37:21;;;;;;;2.17;0.85;;;6.30;99.90;;;;;;5036435;28;20186;-85
2024/02/12 02:39:46;;;;;;;2.10;1.02;;;6.40;99.90;;;;;;5038129;28;20670;-85
2024/02/12 02:42:15;;;;;;;1.48;0.80;;;6.30;99.90;;;;;;5036773;28;20376;-83
2024/02/12 02:44:41;;;;;;;1.75;0.80;;;6.30;99.90;;;;;;5036154;28;20041;-85
2024/02/12 02:47:10;;;;;;;1.35;0.68;;;6.30;99.90;;;;;;5037749;28;20040;-85
2024/02/12 02:49:36;;;;;;;2.67;1.10;;;6.30;99.90;;;;;;5036862;28;20025;-85
2024/02/12 02:52:02;;;;;;;1.60;0.80;;;6.30;99.90;;;;;;5035346;28;20029;-85
2024/02/12 02:54:28;;;;;;;2.38;1.00;;;6.00;99.90;;;;;;5036382;28;20152;-86
2024/02/12 02:56:54;;;;;;;1.92;1.00;;;6.00;99.90;;;;;;5036201;28;20056;-85
2024/02/12 02:59:20;;;;;;;3.15;1.00;;;6.00;99.90;;;;;;5036537;28;20424;-82
2024/02/12 03:01:46;;;;;;;1.42;0.75;;;6.00;99.90;;;;;;5037234;28;20047;-84
2024/02/12 03:04:15;;;;;;;2.10;0.88;;;6.10;99.90;;;;;;5037274;28;20061;-83
2024/02/12 03:06:50;;;;;;;2.45;1.00;;;6.20;99.90;;;;;;5035806;28;20245;-84
2024/02/12 03:09:16;;;;;;;1.60;0.80;;;6.30;99.90;;;;;;5037332;28;20049;-83
2024/02/12 03:11:42;;;;;;;3.13;1.02;;;6.30;99.90;;;;;;5037397;28;20033;-85
2024/02/12 03:14:10;;;;;;;1.77;0.90;;;6.10;99.90;;;;;;5037857;28;20541;-84
2024/02/12 03:16:39;;;;;;;2.35;1.00;;;6.00;99.90;;;;;;5036558;28;20451;-84
2024/02/12 03:19:10;;;;;;;1.73;0.80;;;6.10;99.90;;;;;;5037249;28;20407;-83
2024/02/12 03:21:37;;;;;;;1.90;0.80;;;6.20;99.90;;;;;;5037508;28;20044;-84
2024/02/12 03:24:03;;;;;;;2.65;1.00;;;6.20;99.90;;;;;;5038099;28;20033;-84
2024/02/12 03:26:30;;;;;;;2.63;0.98;;;6.50;99.90;;;;;;5036956;28;21261;-84
2024/02/12 03:28:56;;;;;;;2.45;1.08;;;6.50;99.90;;;;;;5036165;28;20037;-84
2024/02/12 03:31:21;;;;;;;2.80;1.15;;;6.40;99.90;;;;;;5037265;28;20068;-85
2024/02/12 03:33:49;;;;;;;2.28;1.00;;;6.20;99.90;;;;;;5035696;28;20037;-86
2024/02/12 03:36:15;;;;;;;2.78;1.27;;;6.00;99.90;;;;;;5035844;28;20049;-86
2024/02/12 03:38:42;;;;;;;2.50;1.13;;;5.70;99.90;;;;;;5036272;28;20090;-86
2024/02/12 03:41:07;;;;;;;1.92;1.00;;;5.80;99.90;;;;;;5036752;28;20041;-84
2024/02/12 03:43:37;;;;;;;3.83;1.30;;;5.90;99.90;;;;;;5036045;28;20029;-83
2024/02/12 03:46:03;;;;;;;2.03;1.05;;;5.90;99.90;;;;;;5035569;28;20033;-86
2024/02/12 04:02:12;;;;;;;2.40;1.10;;;6.20;99.90;;;;;;5036040;28;20566;-84
2024/02/12 04:04:42;;;;;;;3.75;1.52;;;6.00;99.90;;;;;;5031494;28;20041;-86
2024/02/12 04:07:07;;;;;;;2.08;1.00;;;5.90;99.90;;;;;;5031944;28;20080;-86
2024/02/12 04:09:38;;;;;;;1.58;0.85;;;5.90;99.90;;;;;;5033439;28;20114;-84
2024/02/12 04:12:11;;;;;;;1.92;0.88;;;5.70;99.90;;;;;;5034722;28;20496;-83
2024/02/12 04:14:44;;;;;;;1.95;0.95;;;5.70;99.90;;;;;;5032966;28;20162;-85
2024/02/12 04:17:10;;;;;;;1.23;0.93;;;5.70;99.90;;;;;;5031342;28;20075;-85
2024/02/12 04:19:40;;;;;;;1.75;0.93;;;5.50;99.90;;;;;;5030976;28;20041;-84
2024/02/12 04:22:09;;;;;;;1.58;0.70;;;5.40;99.90;;;;;;5034424;28;20037;-83
2024/02/12 04:24:58;;;;;;;1.35;0.80;;;5.50;99.90;;;;;;5036773;28;20041;-84
2024/02/12 04:27:23;;;;;;;1.30;0.70;;;5.50;99.90;;;;;;5036555;28;20375;-84
2024/02/12 04:29:51;;;;;;;1.38;0.68;;;5.50;99.90;;;;;;5036153;28;20033;-84
2024/02/12 04:32:25;;;;;;;1.80;0.75;;;5.50;99.90;;;;;;5036917;28;20068;-86
2024/02/12 04:35:36;;;;;;;;;;;5.50;99.90;;;;;;5037612;28;20094;-85
2024/02/12 04:37:37;;;;;;;1.70;0.80;;;5.60;99.90;;;;;;5033075;28;19925;-84
2024/02/12 04:40:04;;;;;;;2.38;1.02;;;5.30;99.90;;;;;;5035688;28;20546;-83
2024/02/12 04:42:54;;;;;;;1.90;0.70;;;4.90;99.90;;;;;;5034484;28;20518;-85
2024/02/12 04:45:30;;;;;;;2.65;1.17;;;4.80;99.90;;;;;;5025277;28;20194;-84
2024/02/12 04:47:56;;;;;;;2.53;1.10;;;4.90;99.90;;;;;;5033532;28;20141;-88
2024/02/12 04:50:23;;;;;;;2.63;1.23;;;4.90;99.90;;;;;;5033678;28;20036;-85
2024/02/12 04:52:49;;;;;;;3.35;1.30;;;4.80;99.90;;;;;;5033546;28;20441;-86
2024/02/12 04:55:15;;;;;;;2.35;0.80;;;5.00;99.90;;;;;;5033686;28;20117;-87
2024/02/12 04:57:41;;;;;;;2.65;1.50;;;5.00;99.90;;;;;;5034386;28;20350;-86
2024/02/12 05:00:10;;;;;;;1.48;0.90;;;5.00;99.90;;;;;;5035038;28;20253;-84
2024/02/12 05:02:37;;;;;;;2.38;1.20;;;5.20;99.90;;;;;;5034245;28;20367;-84
2024/02/12 05:05:59;;;;;;;;;;;;;;;;;;;;;
2024/02/12 05:08:25;;;;;;;3.15;1.17;;;5.20;99.90;;;;;;4990431;28;20164;-85
2024/02/12 05:11:00;;;;;;;2.95;1.30;;;5.00;99.90;;;;;;5026460;28;20048;-84
2024/02/12 05:13:27;;;;;;;3.08;1.25;;;5.00;99.90;;;;;;5033289;28;20232;-86
2024/02/12 05:15:58;;;;;;;2.63;1.15;;;5.10;99.90;;;;;;5033761;28;20131;-84
2024/02/12 05:23:57;;;;;;;3.70;1.38;;;5.00;99.90;;;;;;5033571;28;20586;-85
2024/02/12 05:26:23;;;;;;;2.85;1.30;;;4.80;99.90;;;;;;5032578;28;20115;-86
2024/02/12 05:28:50;;;;;;;2.67;1.50;;;5.00;99.90;;;;;;5032885;28;20390;-87
2024/02/12 05:31:17;;;;;;;2.75;1.38;;;5.00;99.90;;;;;;5032982;28;20040;-88
2024/02/12 05:33:42;;;;;;;3.53;1.50;;;5.10;99.90;;;;;;5032076;28;20071;-86
2024/02/12 05:36:10;;;;;;;5.13;2.30;;;5.10;99.90;;;;;;5032399;28;20121;-86
2024/02/12 05:38:46;;;;;;;2.95;1.80;;;5.10;99.90;;;;;;5034861;28;20129;-86
2024/02/12 05:41:12;;;;;;;3.28;1.45;;;5.20;99.90;;;;;;5034002;28;20652;-87
2024/02/12 05:43:38;;;;;;;3.53;1.42;;;5.40;99.90;;;;;;5032916;28;21029;-86
2024/02/12 05:46:05;;;;;;;3.63;1.83;;;5.60;99.90;;;;;;5032255;28;20041;-85
2024/02/12 05:49:06;;;;;;;2.55;1.45;;;5.60;99.90;;;;;;5032726;28;20032;-84
2024/02/12 05:51:34;;;;;;;3.00;1.85;;;5.70;99.90;;;;;;5025187;28;20463;-86
2024/02/12 05:54:01;;;;;;;2.72;1.27;;;5.80;99.90;;;;;;5033291;28;20076;-84
2024/02/12 05:56:40;;;;;;;2.80;1.20;;;5.70;99.90;;;;;;5031873;28;20482;-83
2024/02/12 05:59:07;;;;;;;4.07;1.50;;;5.70;99.90;;;;;;5034088;28;20387;-85
2024/02/12 06:01:42;;;;;;;3.40;1.60;;;5.60;99.90;;;;;;5034159;28;20085;-85
2024/02/12 06:04:13;;;;;;;4.40;1.60;;;5.30;99.90;;;;;;5032151;28;20041;-83
2024/02/12 06:06:42;;;;;;;3.13;1.58;;;5.40;99.90;;;;;;5031849;28;20470;-84
2024/02/12 06:09:31;;;;;;;2.55;1.35;;;5.50;99.90;;;;;;5032687;28;20045;-83
2024/02/12 06:11:57;;;;;;;3.00;1.60;;;5.30;99.90;;;;;;5024279;28;20059;-86
2024/02/12 06:14:26;;;;;;;4.25;2.40;;;5.30;99.90;;;;;;5036981;28;20029;-83
2024/02/12 06:16:52;;;;;;;5.28;2.55;;;5.20;99.90;;;;;;5035472;28;20048;-85
2024/02/12 06:19:18;;;;;;;3.97;1.85;;;5.00;99.90;;;;;;5030749;28;20984;-84
2024/02/12 06:21:45;;;;;;;4.68;1.90;;;4.80;99.90;;;;;;5030732;28;20045;-83
2024/02/12 06:24:11;;;;;;;2.90;1.35;;;4.70;99.90;;;;;;5031932;28;20037;-84
2024/02/12 06:26:51;;;;;;;4.63;1.50;;;4.70;99.90;;;;;;5030588;28;20033;-84
2024/02/12 06:29:22;;;;;;;1.90;1.08;;;4.70;99.90;;;;;;5030695;28;20682;-84
2024/02/12 06:31:48;;;;;;;1.42;0.70;;;4.70;99.90;;;;;;5031248;28;20039;-87
2024/02/12 06:34:14;;;;;;;2.17;0.98;;;4.60;99.90;;;;;;5032087;28;20066;-84
2024/02/12 06:36:39;;;;;;;4.93;2.50;;;4.50;99.90;;;;;;5029925;28;20044;-84
2024/02/12 06:39:05;;;;;;;1.98;1.02;;;4.60;99.90;;;;;;5031678;28;20033;-84
2024/02/12 06:41:32;;;;;;;3.03;1.35;;;4.50;99.90;;;;;;5031107;28;20029;-85
2024/02/12 06:43:58;;;;;;;2.28;1.08;;;4.50;99.90;;;;;;5030436;28;20052;-84
2024/02/12 06:46:33;;;;;;;2.53;1.40;;;4.30;99.90;;;;;;5030844;28;20059;-83
2024/02/12 06:49:09;;;;;;;3.78;1.88;;;4.20;99.90;;;;;;5032179;28;20127;-84
2024/02/12 06:51:40;;;;;;;4.20;2.10;;;4.40;99.90;;;;;;5028595;28;20053;-84
2024/02/12 06:54:07;;;;;;;5.45;2.20;;;4.30;99.90;;;;;;5032553;28;20060;-84
2024/02/12 06:56:33;;;;;;;3.72;1.88;;;4.40;99.90;;;;;;5032507;28;20159;-85
2024/02/12 06:58:59;;;;;;;4.00;2.15;;;4.60;99.90;;;;;;5040606;28;20597;-86
2024/02/12 07:01:27;;;;;;;4.47;2.13;;;4.70;99.90;;;;;;5037998;28;20029;-84
2024/02/12 07:03:53;;;;;;;3.60;1.55;;;4.70;99.90;;;;;;5032472;28;20050;-87
2024/02/12 07:06:20;;;;;;;3.30;1.83;;;4.70;99.90;;;;;;5031912;28;20025;-87
2024/02/12 07:08:45;;;;;;;3.15;1.60;;;4.70;99.90;;;;;;5031566;28;20090;-86
2024/02/12 07:11:15;;;;;;;4.57;1.67;;;4.50;99.90;;;;;;5032082;28;20036;-88
2024/02/12 07:13:40;;;;;;;5.40;1.65;;;4.40;99.90;;;;;;5037016;28;20040;-85
2024/02/12 07:16:30;;;;;;;2.63;1.40;;;4.30;99.90;;;;;;5035840;28;20410;-84
2024/02/12 07:18:59;;;;;;;3.40;1.58;;;4.20;99.90;;;;;;5031609;28;20526;-88
2024/02/12 07:21:25;;;;;;;2.38;1.13;;;4.20;99.90;;;;;;5031184;28;20033;-86
2024/02/12 07:23:51;;;;;;;2.67;1.20;;;4.30;99.90;;;;;;5030668;28;20040;-89
2024/02/12 07:26:18;;;;;;;2.30;1.13;;;4.30;99.90;;;;;;5032018;28;20037;-87
2024/02/12 07:28:43;;;;;;;2.13;1.27;;;4.30;99.90;;;;;;5031134;28;21319;-87
2024/02/12 07:31:09;;;;;;;2.33;1.10;;;4.40;99.90;;;;;;5030936;28;20033;-86
2024/02/12 07:33:35;;;;;;;1.92;1.00;;;4.50;99.90;;;;;;5031295;28;20124;-87
2024/02/12 07:36:05;;;;;;;2.83;1.42;;;4.60;99.90;;;;;;5030304;28;20124;-86
2024/02/12 07:38:31;;;;;;;2.75;1.13;;;4.70;99.90;;;;;;5031679;28;20025;-86
2024/02/12 07:40:58;;;;;;;2.35;1.33;;;4.70;99.90;;;;;;5032413;28;20044;-87
2024/02/12 07:43:25;;;;;;;2.65;1.20;;;4.60;99.90;;;;;;5031254;28;20684;-88
2024/02/12 07:45:53;;;;;;;2.53;1.50;;;4.60;99.90;;;;;;5032715;28;20059;-85
2024/02/12 07:48:20;;;;;;;3.03;1.70;;;4.60;99.90;;;;;;5030368;28;20837;-88
2024/02/12 07:50:45;;;;;;;3.33;1.48;;;4.60;99.90;;;;;;5030350;28;20069;-86
2024/02/12 07:53:11;;;;;;;3.80;1.40;;;4.70;99.90;;;;;;5031857;28;21506;-85
2024/02/12 07:55:43;;;;;;;3.25;1.60;;;4.90;99.90;;;;;;5033634;28;20057;-86
2024/02/12 07:58:08;;;;;;;2.92;1.48;;;4.70;99.90;;;;;;5034518;28;20036;-88
2024/02/12 08:00:34;;;;;;;3.65;1.77;;;4.70;99.90;;;;;;5035352;28;20363;-87
2024/02/12 08:03:00;;;;;;;3.63;1.70;;;4.80;99.90;;;;;;5033660;28;20815;-85
2024/02/12 08:05:25;;;;;;;3.38;1.70;;;4.80;99.90;;;;;;5033500;28;20501;-85
2024/02/12 08:07:55;;;;;;;4.22;2.45;;;4.80;99.90;;;;;;5034104;28;20033;-81
2024/02/12 08:10:27;;;;;;;2.95;1.55;;;4.90;99.90;;;;;;5032331;28;20479;-81
2024/02/12 08:12:52;;;;;;;2.47;1.35;;;5.10;99.90;;;;;;5032275;28;20041;-82
2024/02/12 08:15:18;;;;;;;3.38;1.80;;;5.30;99.90;;;;;;5033658;28;20032;-82
2024/02/12 08:17:44;;;;;;;3.17;1.35;;;5.30;99.90;;;;;;5032293;28;20441;-82
2024/02/12 08:20:10;;;;;;;2.75;1.33;;;5.40;99.90;;;;;;5032491;28;20039;-80
2024/02/12 08:23:40;;;;;;;4.20;1.33;;;5.40;99.90;;;;;;5036209;28;20048;-80
2024/02/12 08:26:06;;;;;;;2.88;1.23;;;5.40;99.90;;;;;;4973166;28;20073;-80
2024/02/12 08:28:33;;;;;;;3.20;1.15;;;5.40;99.90;;;;;;4971878;28;20042;-83
2024/02/12 08:30:59;;;;;;;2.95;1.38;;;5.50;99.90;;;;;;5008207;28;20048;-82
2024/02/12 08:33:26;;;;;;;2.75;1.13;;;5.50;99.90;;;;;;5035737;28;20087;-84
2024/02/12 08:35:52;;;;;;;3.08;1.50;;;5.60;99.90;;;;;;5035129;28;20024;-83
2024/02/12 08:38:18;;;;;;;3.13;1.35;;;5.50;99.90;;;;;;5034696;28;20033;-83
2024/02/12 08:40:44;;;;;;;1.52;1.00;;;5.60;99.90;;;;;;5035611;28;20033;-82
2024/02/12 08:43:10;;;;;;;2.38;1.27;;;5.70;99.90;;;;;;5023090;28;20145;-82
2024/02/12 08:46:01;;;;;;;3.13;1.05;;;5.70;99.90;;;;;;5031061;28;20037;-80
2024/02/12 08:48:29;;;;;;;2.78;1.08;;;5.90;99.90;;;;;;5030597;28;20032;-79
2024/02/12 08:51:10;;;;;;;2.17;0.95;;;6.00;99.90;;;;;;5030991;28;20036;-79
2024/02/12 08:53:43;;;;;;;1.65;0.85;;;6.10;99.90;;;;;;5031447;28;20032;-82
2024/02/12 08:56:14;;;;;;;1.92;1.10;;;6.20;99.90;;;;;;5032655;28;20102;-83
2024/02/12 08:58:41;;;;;;;4.53;2.00;;;6.30;99.90;;;;;;5033821;28;20072;-82
2024/02/12 09:01:09;;;;;;;2.83;1.50;;;6.40;99.90;;;;;;5034214;28;20176;-82
2024/02/12 09:03:38;;;;;;;5.07;2.53;;;6.50;99.90;;;;;;5034427;28;20582;-82
2024/02/12 09:06:47;;;;;;;3.88;1.67;;;6.50;99.90;;;;;;5034371;28;20044;-78
2024/02/12 09:09:13;;;;;;;3.30;1.55;;;6.60;99.90;;;;;;4970824;28;20566;-79
2024/02/12 09:11:41;;;;;;;3.20;1.35;;;6.40;99.90;;;;;;4972002;28;20117;-78
2024/02/12 09:14:08;;;;;;;5.38;1.90;;;6.50;99.90;;;;;;4970920;28;20041;-79
2024/02/12 09:16:34;;;;;;;3.65;1.80;;;6.50;99.90;;;;;;4983722;28;20707;-78
2024/02/12 09:19:00;;;;;;;3.05;1.60;;;6.60;99.90;;;;;;5033386;28;20061;-79
2024/02/12 09:21:26;;;;;;;3.17;1.70;;;6.60;99.90;;;;;;5032600;28;20111;-80
2024/02/12 09:23:52;;;;;;;3.20;1.50;;;6.70;99.90;;;;;;5032508;28;20475;-78
2024/02/12 09:29:27;;;;;;;4.78;2.53;;;6.80;99.90;;;;;;5020817;28;20099;-79
2024/02/12 09:32:12;;;;;;;5.00;2.17;;;6.90;99.90;;;;;;5034022;28;20594;-79
2024/02/12 09:34:39;;;;;;;5.57;2.17;;;7.00;99.90;;;;;;5034771;28;20056;-79
2024/02/12 09:37:04;;;;;;;18.15;11.98;;;7.00;99.90;;;;;;5033723;28;20043;-79
2024/02/12 09:39:31;;;;;;;7.90;5.45;;;7.20;99.90;;;;;;5033241;28;20041;-79
2024/02/12 09:41:58;;;;;;;6.78;3.92;;;7.30;99.90;;;;;;5034314;28;20041;-79
2024/02/12 09:44:25;;;;;;;6.43;3.55;;;7.30;99.90;;;;;;5033385;28;20040;-81
2024/02/12 09:47:06;;;;;;;5.22;2.92;;;7.40;99.90;;;;;;5033366;28;21920;-80
2024/02/12 09:49:32;;;;;;;6.20;2.55;;;7.40;99.90;;;;;;5032680;28;20698;-80
2024/02/12 09:52:47;;;;;;;;;;;;;;;;;;;;;
2024/02/12 09:55:14;;;;;;;6.47;3.55;;;7.50;99.90;;;;;;4967554;28;21416;-80
2024/02/12 09:57:40;;;;;;;4.63;2.72;;;7.60;99.90;;;;;;5032023;28;21199;-80
2024/02/12 10:00:07;;;;;;;8.45;2.58;;;7.60;99.90;;;;;;5033631;28;20430;-80
2024/02/12 10:02:36;;;;;;;5.28;3.17;;;7.60;99.90;;;;;;5032297;28;20037;-82
2024/02/12 10:05:06;;;;;;;4.55;2.90;;;7.60;99.90;;;;;;5032944;28;20109;-80
2024/02/12 10:07:39;;;;;;;4.65;2.42;;;7.60;99.90;;;;;;5034435;28;20041;-81
2024/02/12 10:10:06;;;;;;;5.57;2.50;;;7.60;99.90;;;;;;5034265;28;20526;-81
2024/02/12 10:12:32;;;;;;;5.57;3.22;;;7.60;99.90;;;;;;5033559;28;20033;-80
2024/02/12 10:14:58;;;;;;;6.18;2.83;;;7.70;99.90;;;;;;5032794;28;20566;-80
2024/02/12 10:17:24;;;;;;;6.45;3.30;;;7.70;99.90;;;;;;5032449;28;20045;-80
2024/02/12 10:19:52;;;;;;;6.93;2.75;;;7.80;99.90;;;;;;5032865;28;20032;-80
2024/02/12 10:22:20;;;;;;;4.38;2.60;;;7.80;99.90;;;;;;5032802;28;20628;-80
2024/02/12 10:24:47;;;;;;;7.72;2.10;;;7.80;99.90;;;;;;5034278;28;20033;-81
2024/02/12 10:27:14;;;;;;;5.00;2.70;;;7.90;99.90;;;;;;5033503;28;20113;-80
2024/02/12 10:30:15;;;;;;;5.07;2.30;;;7.90;99.90;;;;;;5032921;28;20033;-80
2024/02/12 10:33:05;;;;;;;4.55;2.75;;;8.00;99.90;;;;;;5029504;28;20048;-80
2024/02/12 10:35:33;;;;;;;4.63;2.60;;;7.90;99.90;;;;;;5032541;28;20929;-80
2024/02/12 10:37:59;;;;;;;7.10;2.42;;;7.90;99.90;;;;;;5032349;28;20044;-80
2024/02/12 10:40:31;;;;;;;4.90;2.35;;;7.90;99.90;;;;;;5032447;28;20043;-80
2024/02/12 10:43:03;;;;;;;6.20;2.58;;;7.90;99.90;;;;;;5032474;28;20056;-80
2024/02/12 10:45:31;;;;;;;4.38;2.20;;;8.00;99.90;;;;;;5032930;28;20049;-80
2024/02/12 10:47:57;;;;;;;5.22;3.08;;;8.10;99.90;;;;;;5032865;28;20037;-81
2024/02/12 10:50:24;;;;;;;8.30;4.95;;;8.10;99.90;;;;;;5033407;28;20574;-81
2024/02/12 10:52:53;;;;;;;8.00;3.10;;;8.20;99.90;;;;;;5033347;28;20033;-80
2024/02/12 10:55:19;;;;;;;3.92;2.38;;;8.20;99.90;;;;;;5032053;28;20150;-81
2024/02/12 10:57:46;;;;;;;3.72;1.95;;;8.20;99.90;;;;;;5033740;28;20076;-81
2024/02/12 11:00:23;;;;;;;6.05;2.50;;;8.30;99.90;;;;;;5032697;28;20037;-80
2024/02/12 11:02:50;;;;;;;5.72;2.55;;;8.40;99.90;;;;;;5032265;28;20029;-80
2024/02/12 11:05:21;;;;;;;13.52;2.97;;;8.40;99.90;;;;;;5025838;28;20037;-82
2024/02/12 11:07:59;;;;;;;4.30;2.50;;;8.60;99.90;;;;;;5031922;28;20087;-81
2024/02/12 11:10:26;;;;;;;4.28;2.30;;;8.60;99.90;;;;;;5032210;28;20271;-81
2024/02/12 11:12:52;;;;;;;3.35;1.88;;;8.60;99.90;;;;;;5029705;28;20083;-80
2024/02/12 11:15:24;;;;;;;6.07;3.47;;;8.70;99.90;;;;;;5030679;28;20657;-79
2024/02/12 11:17:50;;;;;;;5.50;3.33;;;8.90;99.90;;;;;;5030654;28;20069;-81
2024/02/12 11:20:17;;;;;;;5.70;2.95;;;9.00;99.90;;;;;;5030082;28;20611;-80
2024/02/12 11:22:45;;;;;;;5.28;2.28;;;9.00;99.90;;;;;;5031575;28;20049;-80
2024/02/12 11:25:20;;;;;;;4.88;2.33;;;9.20;99.90;;;;;;5030737;28;20526;-81
2024/02/12 11:27:57;;;;;;;4.45;2.00;;;9.20;99.90;;;;;;5031074;28;20036;-81
2024/02/12 11:30:23;;;;;;;7.03;4.80;;;9.30;99.90;;;;;;5035424;28;20033;-80
2024/02/12 11:32:48;;;;;;;8.05;5.43;;;9.50;99.90;;;;;;5036042;28;20568;-80
2024/02/12 11:35:18;;;;;;;6.70;3.70;;;9.60;99.90;;;;;;5035812;28;21265;-79
2024/02/12 11:37:57;;;;;;;7.07;2.63;;;9.70;99.90;;;;;;5034403;28;20049;-81
2024/02/12 11:40:22;;;;;;;14.43;4.35;;;9.90;99.90;;;;;;5033416;28;20668;-79
2024/02/12 11:42:52;;;;;;;3.78;2.45;;;10.00;99.90;;;;;;5036485;28;20024;-80
2024/02/12 11:45:19;;;;;;;4.13;1.90;;;9.90;99.90;;;;;;5035560;28;20037;-80
2024/02/12 11:47:46;;;;;;;3.95;1.85;;;9.90;99.90;;;;;;5034895;28;21907;-80
2024/02/12 11:50:26;;;;;;;4.43;1.83;;;10.00;99.90;;;;;;5036136;28;20037;-80
2024/02/12 11:52:53;;;;;;;4.30;2.30;;;10.10;99.90;;;;;;5036861;28;20513;-80
2024/02/12 11:55:19;;;;;;;4.25;1.70;;;10.20;99.90;;;;;;5034721;28;20052;-78
2024/02/12 11:57:48;;;;;;;3.17;1.77;;;10.10;99.90;;;;;;5034892;28;20128;-82
2024/02/12 12:00:20;;;;;;;3.38;2.28;;;10.20;99.90;;;;;;5034943;28;20503;-82
2024/02/12 12:02:48;;;;;;;3.75;2.13;;;10.30;99.90;;;;;;5034489;28;20052;-81
2024/02/12 12:05:17;;;;;;;4.63;2.15;;;10.30;99.90;;;;;;5034659;28;20025;-81
2024/02/12 12:07:43;;;;;;;5.45;1.63;;;10.30;99.90;;;;;;5035080;28;20049;-81
2024/02/12 12:10:12;;;;;;;3.60;2.17;;;10.30;99.90;;;;;;5032879;28;20064;-80
2024/02/12 12:12:41;;;;;;;3.53;2.08;;;10.50;99.90;;;;;;5031731;28;20036;-80
2024/02/12 12:15:37;;;;;;;3.63;1.80;;;10.80;99.90;;;;;;5030508;28;20036;-81
2024/02/12 12:18:03;;;;;;;3.00;1.60;;;10.90;99.90;;;;;;5024634;28;20114;-81
2024/02/12 12:20:30;;;;;;;4.35;2.03;;;11.00;99.90;;;;;;5033112;28;20040;-81
2024/02/12 12:22:57;;;;;;;5.10;2.28;;;10.90;99.90;;;;;;5032401;28;20035;-82
2024/02/12 12:25:23;;;;;;;5.25;1.92;;;11.20;99.90;;;;;;5031634;28;20111;-81
2024/02/12 12:27:49;;;;;;;4.13;2.20;;;11.20;99.90;;;;;;5033263;28;20025;-83
2024/02/12 12:30:16;;;;;;;4.65;2.25;;;11.40;99.90;;;;;;5029962;28;20048;-83
2024/02/12 12:32:43;;;;;;;5.55;2.58;;;11.30;99.90;;;;;;5030280;28;20083;-82
2024/02/12 12:35:09;;;;;;;5.07;2.70;;;11.50;99.90;;;;;;5033860;28;20079;-81
2024/02/12 12:37:37;;;;;;;4.00;2.03;;;11.50;99.90;;;;;;5032641;28;20059;-80
2024/02/12 12:40:18;;;;;;;5.18;1.95;;;11.40;99.90;;;;;;5030256;28;20117;-81
2024/02/12 12:42:49;;;;;;;3.47;1.77;;;11.50;99.90;;;;;;5029775;28;20037;-81
2024/02/12 12:45:16;;;;;;;3.97;1.80;;;11.70;99.90;;;;;;5030671;28;20047;-81
2024/02/12 12:47:42;;;;;;;4.22;1.98;;;11.80;99.90;;;;;;5031083;28;20529;-81
2024/02/12 12:50:13;;;;;;;3.80;1.60;;;11.70;99.90;;;;;;5030720;28;20171;-81
2024/02/12 12:52:40;;;;;;;4.40;1.63;;;11.50;99.90;;;;;;5031180;28;20043;-81
2024/02/12 12:55:07;;;;;;;2.50;1.33;;;11.50;99.90;;;;;;5031179;28;20044;-82
2024/02/12 12:57:37;;;;;;;2.53;1.15;;;11.50;99.90;;;;;;5030910;28;20049;-83
2024/02/12 13:00:25;;;;;;;4.13;1.40;;;11.50;99.90;;;;;;5030824;28;20076;-83
2024/02/12 13:02:52;;;;;;;2.75;1.27;;;11.60;99.90;;;;;;5029262;28;20098;-83
2024/02/12 13:05:20;;;;;;;1.77;0.90;;;11.50;99.90;;;;;;5031612;28;20041;-84
2024/02/12 13:07:46;;;;;;;2.17;1.10;;;11.50;99.90;;;;;;5031203;28;20130;-83
2024/02/12 13:10:13;;;;;;;3.20;1.25;;;11.90;99.90;;;;;;5030513;28;20041;-83
2024/02/12 13:12:39;;;;;;;2.75;1.20;;;11.90;99.90;;;;;;5031158;28;20037;-83
2024/02/12 13:15:10;;;;;;;2.30;1.00;;;11.90;99.90;;;;;;5029947;28;21396;-83
2024/02/12 13:17:37;;;;;;;2.53;1.10;;;11.80;99.90;;;;;;5030057;28;20052;-81
2024/02/12 13:20:10;;;;;;;2.58;1.20;;;11.80;99.90;;;;;;5030712;28;20658;-81
2024/02/12 13:22:49;;;;;;;2.50;1.17;;;11.80;99.90;;;;;;5031468;28;20037;-80
2024/02/12 13:25:15;;;;;;;3.35;1.17;;;11.90;99.90;;;;;;5030567;28;20122;-80
2024/02/12 13:27:43;;;;;;;2.22;1.10;;;11.90;99.80;;;;;;5029883;28;21192;-80
2024/02/12 13:30:11;;;;;;;2.92;0.77;;;12.00;99.90;;;;;;5030396;28;20119;-81
2024/02/12 13:32:37;;;;;;;1.65;0.73;;;12.10;99.40;;;;;;5029946;28;20033;-81